createdAt,value
2023-05-15T00:00:33.053Z,823.00
2023-05-15T00:01:32.115Z,823.00
2023-05-15T00:02:33.166Z,825.00
2023-05-15T00:03:33.240Z,827.00
2023-05-15T00:04:33.184Z,826.00
2023-05-15T00:05:32.199Z,826.00
2023-05-15T00:06:33.248Z,826.00
2023-05-15T00:07:32.284Z,826.00
2023-05-15T00:08:33.302Z,826.00
2023-05-15T00:09:33.335Z,823.00
2023-05-15T00:10:33.376Z,823.00
2023-05-15T00:11:33.419Z,824.00
2023-05-15T00:12:33.467Z,824.00
2023-05-15T00:13:32.452Z,825.00
2023-05-15T00:14:32.480Z,824.00
2023-05-15T00:15:33.523Z,825.00
2023-05-15T00:16:32.584Z,825.00
2023-05-15T00:17:32.641Z,827.00
2023-05-15T00:18:33.677Z,824.00
2023-05-15T00:19:33.680Z,823.00
2023-05-15T00:20:32.696Z,823.00
2023-05-15T00:21:32.767Z,821.00
2023-05-15T00:22:32.786Z,822.00
2023-05-15T00:23:33.820Z,823.00
2023-05-15T00:24:33.830Z,823.00
2023-05-15T00:25:32.867Z,826.00
2023-05-15T00:26:33.969Z,824.00
2023-05-15T00:27:32.921Z,820.00
2023-05-15T00:28:32.954Z,820.00
2023-05-15T00:29:33.988Z,821.00
2023-05-15T00:30:34.043Z,821.00
2023-05-15T00:31:34.085Z,820.00
2023-05-15T00:32:34.098Z,821.00
2023-05-15T00:33:34.124Z,821.00
2023-05-15T00:34:33.174Z,823.00
2023-05-15T00:35:33.189Z,825.00
2023-05-15T00:36:34.231Z,828.00
2023-05-15T00:37:33.300Z,827.00
2023-05-15T00:38:34.346Z,823.00
2023-05-15T00:39:33.332Z,820.00
2023-05-15T00:40:34.354Z,822.00
2023-05-15T00:41:34.390Z,823.00
2023-05-15T00:42:33.437Z,828.00
2023-05-15T00:43:34.463Z,831.00
2023-05-15T00:44:34.483Z,830.00
2023-05-15T00:45:33.510Z,830.00
2023-05-15T00:46:34.565Z,832.00
2023-05-15T00:47:34.602Z,832.00
2023-05-15T00:48:33.634Z,834.00
2023-05-15T00:49:33.630Z,832.00
2023-05-15T00:50:33.666Z,833.00
2023-05-15T00:51:34.687Z,829.00
2023-05-15T00:52:34.709Z,829.00
2023-05-15T00:53:34.815Z,828.00
2023-05-15T00:54:33.843Z,827.00
2023-05-15T00:55:34.810Z,831.00
2023-05-15T00:56:34.841Z,830.00
2023-05-15T00:57:34.851Z,831.00
2023-05-15T00:58:34.919Z,832.00
2023-05-15T00:59:34.941Z,830.00
2023-05-15T01:00:33.986Z,831.00
2023-05-15T01:01:34.101Z,830.00
2023-05-15T01:02:35.111Z,828.00
2023-05-15T01:03:34.135Z,827.00
2023-05-15T01:04:35.097Z,826.00
2023-05-15T01:05:35.112Z,827.00
2023-05-15T01:06:35.122Z,830.00
2023-05-15T01:07:35.162Z,829.00
2023-05-15T01:08:34.220Z,829.00
2023-05-15T01:09:35.253Z,830.00
2023-05-15T01:10:34.291Z,832.00
2023-05-15T01:11:34.341Z,832.00
2023-05-15T01:12:35.333Z,834.00
2023-05-15T01:13:34.362Z,831.00
2023-05-15T01:14:35.385Z,830.00
2023-05-15T01:15:34.436Z,831.00
2023-05-15T01:16:34.571Z,831.00
2023-05-15T01:17:35.566Z,830.00
2023-05-15T01:18:34.696Z,829.00
2023-05-15T01:19:35.649Z,831.00
2023-05-15T01:20:35.599Z,832.00
2023-05-15T01:21:34.623Z,831.00
2023-05-15T01:22:35.668Z,832.00
2023-05-15T01:23:34.698Z,831.00
2023-05-15T01:24:35.716Z,831.00
2023-05-15T01:25:34.740Z,831.00
2023-05-15T01:26:34.802Z,831.00
2023-05-15T01:27:34.824Z,833.00
2023-05-15T01:28:35.854Z,829.00
2023-05-15T01:29:35.874Z,826.00
2023-05-15T01:30:35.905Z,825.00
2023-05-15T01:31:35.029Z,825.00
2023-05-15T01:32:35.004Z,823.00
2023-05-15T01:33:34.999Z,824.00
2023-05-15T01:34:36.023Z,821.00
2023-05-15T01:35:35.042Z,821.00
2023-05-15T01:36:35.070Z,824.00
2023-05-15T01:37:36.095Z,822.00
2023-05-15T01:38:35.138Z,821.00
2023-05-15T01:39:36.167Z,821.00
2023-05-15T01:40:35.207Z,822.00
2023-05-15T01:41:36.236Z,823.00
2023-05-15T01:42:35.328Z,827.00
2023-05-15T01:43:35.298Z,825.00
2023-05-15T01:44:35.334Z,825.00
2023-05-15T01:45:35.361Z,823.00
2023-05-15T01:46:36.432Z,821.00
2023-05-15T01:47:35.433Z,823.00
2023-05-15T01:48:35.712Z,820.00
2023-05-15T01:49:36.474Z,819.00
2023-05-15T01:50:35.526Z,819.00
2023-05-15T01:51:35.557Z,819.00
2023-05-15T01:52:35.594Z,818.00
2023-05-15T01:53:35.651Z,818.00
2023-05-15T01:54:36.649Z,820.00
2023-05-15T01:55:36.672Z,820.00
2023-05-15T01:56:36.698Z,823.00
2023-05-15T01:57:36.777Z,821.00
2023-05-15T01:58:35.778Z,822.00
2023-05-15T01:59:36.817Z,823.00
2023-05-15T02:00:36.839Z,823.00
2023-05-15T02:01:36.876Z,823.00
2023-05-15T02:02:35.958Z,824.00
2023-05-15T02:03:36.992Z,827.00
2023-05-15T02:04:36.959Z,825.00
2023-05-15T02:05:35.990Z,824.00
2023-05-15T02:06:37.062Z,822.00
2023-05-15T02:07:36.069Z,822.00
2023-05-15T02:08:37.121Z,822.00
2023-05-15T02:09:36.144Z,821.00
2023-05-15T02:10:37.201Z,821.00
2023-05-15T02:11:36.223Z,819.00
2023-05-15T02:12:36.262Z,821.00
2023-05-15T02:13:37.352Z,824.00
2023-05-15T02:14:36.320Z,822.00
2023-05-15T02:15:36.384Z,821.00
2023-05-15T02:16:37.484Z,820.00
2023-05-15T02:17:37.471Z,819.00
2023-05-15T02:18:36.556Z,816.00
2023-05-15T02:19:37.517Z,815.00
2023-05-15T02:20:37.550Z,820.00
2023-05-15T02:21:36.606Z,823.00
2023-05-15T02:22:37.660Z,823.00
2023-05-15T02:23:36.685Z,823.00
2023-05-15T02:24:37.701Z,823.00
2023-05-15T02:25:36.746Z,827.00
2023-05-15T02:26:36.781Z,828.00
2023-05-15T02:27:37.830Z,827.00
2023-05-15T02:28:37.857Z,826.00
2023-05-15T02:29:37.928Z,824.00
2023-05-15T02:30:36.936Z,823.00
2023-05-15T02:31:38.016Z,824.00
2023-05-15T02:32:38.064Z,824.00
2023-05-15T02:33:37.047Z,825.00
2023-05-15T02:34:38.082Z,824.00
2023-05-15T02:35:38.113Z,825.00
2023-05-15T02:36:37.151Z,824.00
2023-05-15T02:37:37.193Z,823.00
2023-05-15T02:38:37.253Z,823.00
2023-05-15T02:39:38.265Z,821.00
2023-05-15T02:40:38.323Z,820.00
2023-05-15T02:41:37.358Z,818.00
2023-05-15T02:42:37.406Z,818.00
2023-05-15T02:43:38.442Z,820.00
2023-05-15T02:44:37.468Z,823.00
2023-05-15T02:45:38.552Z,822.00
2023-05-15T02:46:38.560Z,824.00
2023-05-15T02:47:38.617Z,823.00
2023-05-15T02:48:37.660Z,823.00
2023-05-15T02:49:37.668Z,823.00
2023-05-15T02:50:38.706Z,823.00
2023-05-15T02:51:38.058Z,821.00
2023-05-15T02:52:37.798Z,822.00
2023-05-15T02:53:38.843Z,824.00
2023-05-15T02:54:37.870Z,824.00
2023-05-15T02:55:37.909Z,823.00
2023-05-15T02:56:38.967Z,823.00
2023-05-15T02:57:37.996Z,821.00
2023-05-15T02:58:39.021Z,821.00
2023-05-15T02:59:39.048Z,823.00
2023-05-15T03:00:39.093Z,823.00
2023-05-15T03:01:39.257Z,826.00
2023-05-15T03:02:39.208Z,826.00
2023-05-15T03:03:39.205Z,830.00
2023-05-15T03:04:38.303Z,828.00
2023-05-15T03:05:38.273Z,828.00
2023-05-15T03:06:39.325Z,829.00
2023-05-15T03:07:38.381Z,830.00
2023-05-15T03:08:38.420Z,829.00
2023-05-15T03:09:39.470Z,829.00
2023-05-15T03:10:39.497Z,828.00
2023-05-15T03:11:38.559Z,829.00
2023-05-15T03:12:39.599Z,830.00
2023-05-15T03:13:38.674Z,829.00
2023-05-15T03:14:39.697Z,831.00
2023-05-15T03:15:39.752Z,826.00
2023-05-15T03:16:38.928Z,827.00
2023-05-15T03:17:39.904Z,826.00
2023-05-15T03:18:38.918Z,826.00
2023-05-15T03:19:39.922Z,825.00
2023-05-15T03:20:38.973Z,824.00
2023-05-15T03:21:39.028Z,823.00
2023-05-15T03:22:39.097Z,821.00
2023-05-15T03:23:40.128Z,822.00
2023-05-15T03:24:39.163Z,822.00
2023-05-15T03:25:39.203Z,820.00
2023-05-15T03:26:39.249Z,823.00
2023-05-15T03:27:40.284Z,826.00
2023-05-15T03:28:41.049Z,824.00
2023-05-15T03:29:39.324Z,824.00
2023-05-15T03:30:39.320Z,824.00
2023-05-15T03:31:40.365Z,823.00
2023-05-15T03:32:40.311Z,825.00
2023-05-15T03:33:40.316Z,823.00
2023-05-15T03:34:41.137Z,823.00
2023-05-15T03:35:39.273Z,823.00
2023-05-15T03:36:39.276Z,823.00
2023-05-15T03:37:40.279Z,819.00
2023-05-15T03:38:40.259Z,819.00
2023-05-15T03:39:40.260Z,820.00
2023-05-15T03:40:40.263Z,820.00
2023-05-15T03:41:40.243Z,821.00
2023-05-15T03:42:39.223Z,819.00
2023-05-15T03:43:40.232Z,820.00
2023-05-15T03:44:39.228Z,820.00
2023-05-15T03:45:40.261Z,821.00
2023-05-15T03:46:40.384Z,824.00
2023-05-15T03:47:40.378Z,824.00
2023-05-15T03:48:40.419Z,825.00
2023-05-15T03:49:39.518Z,826.00
2023-05-15T03:50:39.511Z,827.00
2023-05-15T03:51:39.550Z,825.00
2023-05-15T03:52:40.805Z,826.00
2023-05-15T03:53:39.723Z,825.00
2023-05-15T03:54:39.769Z,823.00
2023-05-15T03:55:40.824Z,825.00
2023-05-15T03:56:39.859Z,824.00
2023-05-15T03:57:40.885Z,826.00
2023-05-15T03:58:39.947Z,825.00
2023-05-15T03:59:39.977Z,824.00
2023-05-15T04:00:40.021Z,827.00
2023-05-15T04:01:55.349Z,829.00
2023-05-15T04:02:41.176Z,829.00
2023-05-15T04:03:41.097Z,829.00
2023-05-15T04:04:41.098Z,826.00
2023-05-15T04:05:40.174Z,827.00
2023-05-15T04:06:40.049Z,827.00
2023-05-15T04:07:41.025Z,829.00
2023-05-15T04:08:41.537Z,832.00
2023-05-15T04:09:41.034Z,831.00
2023-05-15T04:10:41.002Z,830.00
2023-05-15T04:11:41.005Z,830.00
2023-05-15T04:12:39.997Z,829.00
2023-05-15T04:13:40.000Z,829.00
2023-05-15T04:14:39.985Z,828.00
2023-05-15T04:15:40.986Z,828.00
2023-05-15T04:16:41.037Z,827.00
2023-05-15T04:17:41.008Z,826.00
2023-05-15T04:18:41.011Z,827.00
2023-05-15T04:19:41.085Z,826.00
2023-05-15T04:20:40.965Z,824.00
2023-05-15T04:21:40.987Z,828.00
2023-05-15T04:22:40.951Z,827.00
2023-05-15T04:23:40.938Z,828.00
2023-05-15T04:24:40.942Z,830.00
2023-05-15T04:25:40.949Z,836.00
2023-05-15T04:26:40.057Z,836.00
2023-05-15T04:27:40.057Z,834.00
2023-05-15T04:28:41.539Z,835.00
2023-05-15T04:29:41.078Z,833.00
2023-05-15T04:30:41.097Z,832.00
2023-05-15T04:31:41.108Z,831.00
2023-05-15T04:32:41.139Z,829.00
2023-05-15T04:33:40.046Z,828.00
2023-05-15T04:34:41.034Z,827.00
2023-05-15T04:35:41.023Z,823.00
2023-05-15T04:36:42.926Z,822.00
2023-05-15T04:37:40.044Z,823.00
2023-05-15T04:38:41.044Z,824.00
2023-05-15T04:39:40.020Z,826.00
2023-05-15T04:40:41.003Z,828.00
2023-05-15T04:41:40.981Z,829.00
2023-05-15T04:42:40.980Z,832.00
2023-05-15T04:43:41.253Z,830.00
2023-05-15T04:44:40.966Z,828.00
2023-05-15T04:45:39.961Z,826.00
2023-05-15T04:46:40.021Z,827.00
2023-05-15T04:47:41.006Z,830.00
2023-05-15T04:48:40.963Z,829.00
2023-05-15T04:49:40.945Z,828.00
2023-05-15T04:50:40.923Z,830.00
2023-05-15T04:51:39.908Z,830.00
2023-05-15T04:52:39.916Z,829.00
2023-05-15T04:53:40.941Z,833.00
2023-05-15T04:54:39.902Z,835.00
2023-05-15T04:55:40.876Z,830.00
2023-05-15T04:56:40.871Z,833.00
2023-05-15T04:57:39.869Z,829.00
2023-05-15T04:58:40.876Z,832.00
2023-05-15T04:59:40.870Z,831.00
2023-05-15T05:00:39.835Z,834.00
2023-05-15T05:01:40.882Z,835.00
2023-05-15T05:02:40.848Z,836.00
2023-05-15T05:03:39.887Z,836.00
2023-05-15T05:04:40.929Z,829.00
2023-05-15T05:05:39.937Z,829.00
2023-05-15T05:06:40.020Z,828.00
2023-05-15T05:07:41.041Z,827.00
2023-05-15T05:08:41.128Z,828.00
2023-05-15T05:09:41.191Z,828.00
2023-05-15T05:10:40.196Z,827.00
2023-05-15T05:11:40.273Z,826.00
2023-05-15T05:12:40.326Z,823.00
2023-05-15T05:13:40.367Z,824.00
2023-05-15T05:14:41.417Z,827.00
2023-05-15T05:15:41.495Z,834.00
2023-05-15T05:16:41.502Z,835.00
2023-05-15T05:17:41.550Z,833.00
2023-05-15T05:18:40.647Z,833.00
2023-05-15T05:19:41.629Z,831.00
2023-05-15T05:20:41.678Z,831.00
2023-05-15T05:21:41.724Z,830.00
2023-05-15T05:22:41.761Z,832.00
2023-05-15T05:23:40.835Z,834.00
2023-05-15T05:24:40.833Z,836.00
2023-05-15T05:25:41.919Z,836.00
2023-05-15T05:26:40.938Z,837.00
2023-05-15T05:27:40.978Z,834.00
2023-05-15T05:28:42.030Z,833.00
2023-05-15T05:29:42.063Z,835.00
2023-05-15T05:30:42.121Z,832.00
2023-05-15T05:31:41.173Z,830.00
2023-05-15T05:32:42.234Z,835.00
2023-05-15T05:33:42.351Z,840.00
2023-05-15T05:34:42.251Z,838.00
2023-05-15T05:35:41.252Z,851.00
2023-05-15T05:36:41.284Z,866.00
2023-05-15T05:37:42.294Z,881.00
2023-05-15T05:38:42.391Z,921.00
2023-05-15T05:39:41.360Z,921.00
2023-05-15T05:40:42.392Z,927.00
2023-05-15T05:41:41.410Z,916.00
2023-05-15T05:42:42.406Z,919.00
2023-05-15T05:43:42.446Z,922.00
2023-05-15T05:44:41.434Z,923.00
2023-05-15T05:45:42.456Z,928.00
2023-05-15T05:46:42.530Z,966.00
2023-05-15T05:47:41.567Z,989.00
2023-05-15T05:48:42.537Z,990.00
2023-05-15T05:49:42.535Z,993.00
2023-05-15T05:50:42.552Z,991.00
2023-05-15T05:51:42.572Z,1013.00
2023-05-15T05:52:41.594Z,1071.00
2023-05-15T05:53:42.615Z,1080.00
2023-05-15T05:54:41.597Z,1089.00
2023-05-15T05:55:42.664Z,1107.00
2023-05-15T05:56:41.606Z,1117.00
2023-05-15T05:57:42.694Z,1116.00
2023-05-15T05:58:42.627Z,1117.00
2023-05-15T05:59:42.632Z,1179.00
2023-05-15T06:00:42.713Z,1209.00
2023-05-15T06:01:42.749Z,1171.00
2023-05-15T06:02:42.976Z,1179.00
2023-05-15T06:03:42.906Z,1164.00
2023-05-15T06:04:41.743Z,1201.00
2023-05-15T06:05:42.763Z,1134.00
2023-05-15T06:06:42.738Z,1229.00
2023-05-15T06:07:41.795Z,1221.00
2023-05-15T06:08:41.763Z,1181.00
2023-05-15T06:09:41.784Z,1187.00
2023-05-15T06:10:42.796Z,1139.00
2023-05-15T06:11:41.768Z,1149.00
2023-05-15T06:12:41.779Z,1141.00
2023-05-15T06:13:41.821Z,1149.00
2023-05-15T06:14:41.819Z,1148.00
2023-05-15T06:15:42.823Z,1139.00
2023-05-15T06:16:42.823Z,1134.00
2023-05-15T06:17:41.852Z,1022.00
2023-05-15T06:18:42.807Z,1126.00
2023-05-15T06:19:42.778Z,1113.00
2023-05-15T06:20:41.812Z,1007.00
2023-05-15T06:21:41.773Z,1042.00
2023-05-15T06:22:41.798Z,1037.00
2023-05-15T06:23:42.794Z,1038.00
2023-05-15T06:24:42.796Z,1035.00
2023-05-15T06:25:42.798Z,1041.00
2023-05-15T06:26:42.800Z,1048.00
2023-05-15T06:27:42.826Z,1052.00
2023-05-15T06:28:42.812Z,1053.00
2023-05-15T06:29:42.893Z,1051.00
2023-05-15T06:30:42.934Z,1047.00
2023-05-15T06:31:41.979Z,1043.00
2023-05-15T06:32:43.122Z,1039.00
2023-05-15T06:33:43.087Z,1041.00
2023-05-15T06:34:43.100Z,1022.00
2023-05-15T06:35:42.148Z,1040.00
2023-05-15T06:36:42.225Z,1053.00
2023-05-15T06:37:43.299Z,1052.00
2023-05-15T06:38:43.334Z,1054.00
2023-05-15T06:39:43.451Z,1058.00
2023-05-15T06:40:43.451Z,1058.00
2023-05-15T06:41:43.532Z,1060.00
2023-05-15T06:42:43.599Z,1055.00
2023-05-15T06:43:43.641Z,1063.00
2023-05-15T06:44:42.710Z,1078.00
2023-05-15T06:45:43.931Z,1034.00
2023-05-15T06:46:43.840Z,1058.00
2023-05-15T06:47:42.895Z,1059.00
2023-05-15T06:48:43.920Z,974.00
2023-05-15T06:49:42.987Z,1024.00
2023-05-15T06:50:44.025Z,1053.00
2023-05-15T06:51:44.099Z,951.00
2023-05-15T06:52:43.114Z,926.00
2023-05-15T06:53:43.118Z,947.00
2023-05-15T06:54:44.328Z,979.00
2023-05-15T06:55:43.141Z,932.00
2023-05-15T06:56:44.169Z,951.00
2023-05-15T06:57:43.218Z,1123.00
2023-05-15T06:58:43.233Z,1139.00
2023-05-15T06:59:44.275Z,1156.00
2023-05-15T07:00:44.194Z,1173.00
2023-05-15T07:01:43.396Z,1185.00
2023-05-15T07:02:43.343Z,1191.00
2023-05-15T07:03:43.418Z,1196.00
2023-05-15T07:04:44.471Z,1190.00
2023-05-15T07:05:44.522Z,1184.00
2023-05-15T07:06:43.560Z,1189.00
2023-05-15T07:07:44.621Z,1191.00
2023-05-15T07:08:44.623Z,1193.00
2023-05-15T07:09:43.714Z,1196.00
2023-05-15T07:10:44.752Z,1199.00
2023-05-15T07:11:44.763Z,1203.00
2023-05-15T07:12:44.837Z,1198.00
2023-05-15T07:13:44.940Z,1197.00
2023-05-15T07:14:43.949Z,1191.00
2023-05-15T07:15:44.991Z,1196.00
2023-05-15T07:16:44.999Z,1191.00
2023-05-15T07:17:45.272Z,1188.00
2023-05-15T07:18:44.148Z,1187.00
2023-05-15T07:19:45.127Z,1186.00
2023-05-15T07:20:45.192Z,1181.00
2023-05-15T07:21:45.198Z,1172.00
2023-05-15T07:22:54.908Z,1167.00
2023-05-15T07:23:45.226Z,1161.00
2023-05-15T07:24:45.258Z,1160.00
2023-05-15T07:25:46.191Z,1157.00
2023-05-15T07:26:57.567Z,1152.00
2023-05-15T07:27:45.186Z,1151.00
2023-05-15T07:28:45.172Z,1155.00
2023-05-15T07:29:45.324Z,1155.00
2023-05-15T07:30:45.191Z,1146.00
2023-05-15T07:31:44.189Z,1142.00
2023-05-15T07:32:44.182Z,1139.00
2023-05-15T07:33:44.259Z,1133.00
2023-05-15T07:34:45.143Z,1134.00
2023-05-15T07:35:45.133Z,1145.00
2023-05-15T07:36:44.194Z,1159.00
2023-05-15T07:37:46.144Z,1179.00
2023-05-15T07:38:45.102Z,1193.00
2023-05-15T07:39:44.189Z,1229.00
2023-05-15T07:40:45.092Z,1259.00
2023-05-15T07:41:45.086Z,1270.00
2023-05-15T07:42:44.139Z,1289.00
2023-05-15T07:43:45.063Z,1317.00
2023-05-15T07:44:45.997Z,1345.00
2023-05-15T07:45:45.124Z,1369.00
2023-05-15T07:46:44.253Z,1389.00
2023-05-15T07:47:45.068Z,1398.00
2023-05-15T07:48:44.052Z,1410.00
2023-05-15T07:49:44.142Z,1427.00
2023-05-15T07:50:44.011Z,1434.00
2023-05-15T07:51:45.028Z,1460.00
2023-05-15T07:52:44.020Z,1509.00
2023-05-15T07:53:43.996Z,1617.00
2023-05-15T07:54:45.042Z,1628.00
2023-05-15T07:55:44.979Z,1651.00
2023-05-15T07:56:44.962Z,1753.00
2023-05-15T07:57:43.949Z,1754.00
2023-05-15T07:58:43.948Z,1762.00
2023-05-15T07:59:44.953Z,1838.00
2023-05-15T08:00:44.984Z,1876.00
2023-05-15T08:01:44.955Z,1878.00
2023-05-15T08:02:45.043Z,1883.00
2023-05-15T08:03:43.992Z,1892.00
2023-05-15T08:04:43.955Z,1922.00
2023-05-15T08:05:44.996Z,1933.00
2023-05-15T08:06:44.570Z,1958.00
2023-05-15T08:07:43.895Z,1981.00
2023-05-15T08:08:43.895Z,2012.00
2023-05-15T08:09:43.874Z,2059.00
2023-05-15T08:10:44.868Z,2086.00
2023-05-15T08:11:44.858Z,2103.00
2023-05-15T08:12:43.869Z,2113.00
2023-05-15T08:13:43.880Z,2142.00
2023-05-15T08:14:43.959Z,2156.00
2023-05-15T08:15:44.870Z,2175.00
2023-05-15T08:16:44.830Z,2210.00
2023-05-15T08:17:43.844Z,2245.00
2023-05-15T08:18:43.832Z,2265.00
2023-05-15T08:19:43.838Z,2278.00
2023-05-15T08:20:43.826Z,2292.00
2023-05-15T08:21:43.888Z,2316.00
2023-05-15T08:22:44.887Z,2349.00
2023-05-15T08:23:44.939Z,2379.00
2023-05-15T08:24:43.965Z,2411.00
2023-05-15T08:25:44.034Z,2442.00
2023-05-15T08:26:44.113Z,2466.00
2023-05-15T08:27:45.238Z,2479.00
2023-05-15T08:28:44.233Z,2493.00
2023-05-15T08:29:45.284Z,2531.00
2023-05-15T08:30:45.332Z,2554.00
2023-05-15T08:31:45.445Z,2579.00
2023-05-15T08:32:45.513Z,2611.00
2023-05-15T08:33:45.562Z,2642.00
2023-05-15T08:34:45.579Z,2659.00
2023-05-15T08:35:45.673Z,2668.00
2023-05-15T08:36:45.677Z,2687.00
2023-05-15T08:37:45.722Z,2709.00
2023-05-15T08:38:44.752Z,2742.00
2023-05-15T08:39:45.815Z,2769.00
2023-05-15T08:40:45.881Z,2807.00
2023-05-15T08:41:44.886Z,2828.00
2023-05-15T08:42:44.968Z,2847.00
2023-05-15T08:43:45.978Z,2840.00
2023-05-15T08:44:46.024Z,2742.00
2023-05-15T08:45:46.035Z,2767.00
2023-05-15T08:46:46.106Z,2767.00
2023-05-15T08:47:46.146Z,2842.00
2023-05-15T08:48:46.215Z,2917.00
2023-05-15T08:49:45.244Z,2953.00
2023-05-15T08:50:46.283Z,2979.00
2023-05-15T08:51:45.329Z,2970.00
2023-05-15T08:52:46.390Z,2972.00
2023-05-15T08:53:46.450Z,2960.00
2023-05-15T08:54:48.062Z,2971.00
2023-05-15T08:55:45.470Z,3015.00
2023-05-15T08:56:46.489Z,3040.00
2023-05-15T08:57:45.471Z,3058.00
2023-05-15T08:58:46.445Z,3049.00
2023-05-15T08:59:45.465Z,3145.00
2023-05-15T09:00:45.459Z,3163.00
2023-05-15T09:01:46.478Z,3179.00
2023-05-15T09:02:45.487Z,3181.00
2023-05-15T09:03:46.516Z,3192.00
2023-05-15T09:04:45.431Z,3222.00
2023-05-15T09:05:46.434Z,3262.00
2023-05-15T09:06:45.393Z,3305.00
2023-05-15T09:07:45.380Z,3353.00
2023-05-15T09:08:46.378Z,3357.00
2023-05-15T09:09:46.495Z,3373.00
2023-05-15T09:10:45.362Z,3390.00
2023-05-15T09:11:45.361Z,3404.00
2023-05-15T09:12:46.365Z,3423.00
2023-05-15T09:13:46.352Z,3441.00
2023-05-15T09:14:45.401Z,3470.00
2023-05-15T09:15:45.349Z,3497.00
2023-05-15T09:16:46.380Z,3531.00
2023-05-15T09:17:46.354Z,3553.00
2023-05-15T09:18:46.343Z,3590.00
2023-05-15T09:19:46.304Z,3632.00
2023-05-15T09:20:46.312Z,3649.00
2023-05-15T09:21:46.275Z,3665.00
2023-05-15T09:22:46.280Z,3678.00
2023-05-15T09:23:46.260Z,3701.00
2023-05-15T09:24:46.280Z,3710.00
2023-05-15T09:25:45.281Z,3725.00
2023-05-15T09:26:46.286Z,3741.00
2023-05-15T09:27:45.258Z,3756.00
2023-05-15T09:28:46.242Z,3793.00
2023-05-15T09:29:46.229Z,3816.00
2023-05-15T09:30:45.261Z,3825.00
2023-05-15T09:31:46.255Z,3844.00
2023-05-15T09:32:45.214Z,3861.00
2023-05-15T09:33:46.196Z,3875.00
2023-05-15T09:34:46.184Z,3884.00
2023-05-15T09:35:46.206Z,3900.00
2023-05-15T09:36:46.194Z,3921.00
2023-05-15T09:37:45.185Z,3939.00
2023-05-15T09:38:46.163Z,3957.00
2023-05-15T09:39:46.182Z,3985.00
2023-05-15T09:40:46.248Z,4017.00
2023-05-15T09:41:46.277Z,4038.00
2023-05-15T09:42:46.297Z,4056.00
2023-05-15T09:43:46.288Z,4075.00
2023-05-15T09:44:45.324Z,4113.00
2023-05-15T09:45:46.400Z,4165.00
2023-05-15T09:46:45.573Z,4220.00
2023-05-15T09:47:46.469Z,4225.00
2023-05-15T09:48:45.503Z,4233.00
2023-05-15T09:49:46.561Z,4238.00
2023-05-15T09:50:46.876Z,4251.00
2023-05-15T09:51:45.584Z,4281.00
2023-05-15T09:52:46.562Z,4308.00
2023-05-15T09:53:45.552Z,4327.00
2023-05-15T09:54:48.728Z,4337.00
2023-05-15T09:55:45.580Z,3228.00
2023-05-15T09:56:46.552Z,2486.00
2023-05-15T09:57:45.574Z,1924.00
2023-05-15T09:58:45.539Z,1419.00
2023-05-15T09:59:46.538Z,1334.00
2023-05-15T10:00:47.965Z,1176.00
2023-05-15T10:01:45.609Z,2309.00
2023-05-15T10:02:46.558Z,1986.00
2023-05-15T10:03:45.529Z,2536.00
2023-05-15T10:04:46.588Z,2634.00
2023-05-15T10:05:46.525Z,2334.00
2023-05-15T10:06:46.497Z,2381.00
2023-05-15T10:07:45.466Z,2202.00
2023-05-15T10:08:46.481Z,2329.00
2023-05-15T10:09:45.485Z,2284.00
2023-05-15T10:10:45.447Z,2295.00
2023-05-15T10:11:46.446Z,2075.00
2023-05-15T10:12:47.228Z,2072.00
2023-05-15T10:13:46.454Z,2096.00
2023-05-15T10:14:46.426Z,2103.00
2023-05-15T10:15:45.412Z,2098.00
2023-05-15T10:16:46.428Z,2085.00
2023-05-15T10:17:46.408Z,2083.00
2023-05-15T10:18:45.473Z,2083.00
2023-05-15T10:19:57.066Z,2087.00
2023-05-15T10:20:46.374Z,2095.00
2023-05-15T10:21:46.362Z,2116.00
2023-05-15T10:22:46.357Z,2138.00
2023-05-15T10:23:46.354Z,2192.00
2023-05-15T10:24:46.344Z,2229.00
2023-05-15T10:25:46.326Z,2238.00
2023-05-15T10:26:46.393Z,2251.00
2023-05-15T10:27:45.381Z,2263.00
2023-05-15T10:28:45.314Z,2282.00
2023-05-15T10:29:46.333Z,2308.00
2023-05-15T10:30:46.314Z,2331.00
2023-05-15T10:31:45.342Z,2355.00
2023-05-15T10:32:46.349Z,2364.00
2023-05-15T10:33:46.275Z,2370.00
2023-05-15T10:34:46.266Z,2394.00
2023-05-15T10:35:45.260Z,2422.00
2023-05-15T10:36:46.255Z,2449.00
2023-05-15T10:37:46.252Z,2470.00
2023-05-15T10:38:45.250Z,2493.00
2023-05-15T10:39:45.267Z,2510.00
2023-05-15T10:40:46.225Z,2531.00
2023-05-15T10:41:46.398Z,2586.00
2023-05-15T10:42:45.210Z,2593.00
2023-05-15T10:43:45.213Z,2611.00
2023-05-15T10:44:45.194Z,2622.00
2023-05-15T10:45:46.225Z,2624.00
2023-05-15T10:46:45.448Z,2725.00
2023-05-15T10:47:46.229Z,2562.00
2023-05-15T10:48:46.177Z,2661.00
2023-05-15T10:49:45.174Z,2678.00
2023-05-15T10:50:45.164Z,2701.00
2023-05-15T10:51:46.166Z,2698.00
2023-05-15T10:52:46.159Z,2689.00
2023-05-15T10:53:45.138Z,2498.00
2023-05-15T10:54:45.135Z,2460.00
2023-05-15T10:55:46.147Z,2456.00
2023-05-15T10:56:45.126Z,2448.00
2023-05-15T10:57:45.112Z,2403.00
2023-05-15T10:58:45.105Z,2339.00
2023-05-15T10:59:45.086Z,2312.00
2023-05-15T11:00:45.170Z,2307.00
2023-05-15T11:01:45.189Z,2296.00
2023-05-15T11:02:46.095Z,2278.00
2023-05-15T11:03:49.537Z,2207.00
2023-05-15T11:04:46.189Z,2151.00
2023-05-15T11:05:46.124Z,2074.00
2023-05-15T11:06:45.127Z,2054.00
2023-05-15T11:07:46.129Z,1913.00
2023-05-15T11:08:46.122Z,1930.00
2023-05-15T11:09:46.125Z,1910.00
2023-05-15T11:10:45.148Z,1868.00
2023-05-15T11:11:46.196Z,1850.00
2023-05-15T11:12:45.140Z,1841.00
2023-05-15T11:13:46.126Z,1821.00
2023-05-15T11:14:46.144Z,1776.00
2023-05-15T11:15:46.136Z,1771.00
2023-05-15T11:16:46.159Z,1748.00
2023-05-15T11:17:46.236Z,1678.00
2023-05-15T11:18:45.193Z,1649.00
2023-05-15T11:19:45.157Z,1558.00
2023-05-15T11:20:45.183Z,1556.00
2023-05-15T11:21:46.198Z,1561.00
2023-05-15T11:22:46.185Z,1562.00
2023-05-15T11:23:46.187Z,1561.00
2023-05-15T11:24:46.191Z,1549.00
2023-05-15T11:25:45.195Z,1543.00
2023-05-15T11:26:46.264Z,1529.00
2023-05-15T11:27:45.273Z,1520.00
2023-05-15T11:28:46.296Z,1489.00
2023-05-15T11:29:45.308Z,1407.00
2023-05-15T11:30:46.390Z,1468.00
2023-05-15T11:31:46.372Z,1520.00
2023-05-15T11:32:45.472Z,1546.00
2023-05-15T11:33:46.506Z,1542.00
2023-05-15T11:34:46.541Z,1463.00
2023-05-15T11:35:46.617Z,1183.00
2023-05-15T11:36:45.620Z,1179.00
2023-05-15T11:37:46.602Z,1109.00
2023-05-15T11:38:46.612Z,1084.00
2023-05-15T11:39:46.615Z,1016.00
2023-05-15T11:40:46.610Z,909.00
2023-05-15T11:41:45.661Z,896.00
2023-05-15T11:42:46.623Z,845.00
2023-05-15T11:43:45.632Z,809.00
2023-05-15T11:44:45.631Z,757.00
2023-05-15T11:45:45.644Z,731.00
2023-05-15T11:46:46.722Z,719.00
2023-05-15T11:47:46.767Z,700.00
2023-05-15T11:48:45.713Z,687.00
2023-05-15T11:49:46.904Z,670.00
2023-05-15T11:50:46.788Z,654.00
2023-05-15T11:51:46.863Z,641.00
2023-05-15T11:52:45.868Z,630.00
2023-05-15T11:53:46.946Z,623.00
2023-05-15T11:54:46.994Z,615.00
2023-05-15T11:55:46.036Z,609.00
2023-05-15T11:56:46.098Z,602.00
2023-05-15T11:57:47.158Z,597.00
2023-05-15T11:58:47.222Z,588.00
2023-05-15T11:59:47.288Z,583.00
2023-05-15T12:00:46.364Z,576.00
2023-05-15T12:01:47.452Z,573.00
2023-05-15T12:02:46.512Z,570.00
2023-05-15T12:03:47.718Z,566.00
2023-05-15T12:04:46.643Z,563.00
2023-05-15T12:05:57.654Z,560.00
2023-05-15T12:06:47.666Z,558.00
2023-05-15T12:07:47.629Z,556.00
2023-05-15T12:08:47.611Z,554.00
2023-05-15T12:09:47.615Z,552.00
2023-05-15T12:10:47.604Z,546.00
2023-05-15T12:11:47.613Z,542.00
2023-05-15T12:12:47.619Z,538.00
2023-05-15T12:13:47.598Z,539.00
2023-05-15T12:14:47.594Z,538.00
2023-05-15T12:15:47.623Z,535.00
2023-05-15T12:16:46.628Z,536.00
2023-05-15T12:17:46.613Z,534.00